sensor_id;sensor_type;location;lat;lon;timestamp;pressure;altitude;pressure_sealevel;temperature;humidity
73240;BME280;61452;40.054;4.110;2022-12-18T00:00:55;102421.66;;;17.84;54.06
73240;BME280;61452;40.054;4.110;2022-12-18T00:05:58;102427.94;;;17.83;54.01
73240;BME280;61452;40.054;4.110;2022-12-18T00:11:05;102428.88;;;17.82;54.00
73240;BME280;61452;40.054;4.110;2022-12-18T00:16:11;102432.47;;;17.81;53.86
73240;BME280;61452;40.054;4.110;2022-12-18T00:21:14;102433.31;;;17.82;54.00
73240;BME280;61452;40.054;4.110;2022-12-18T00:26:28;102428.09;;;17.80;54.00
73240;BME280;61452;40.054;4.110;2022-12-18T00:31:34;102440.44;;;17.81;53.99
73240;BME280;61452;40.054;4.110;2022-12-18T00:36:36;102448.41;;;17.81;54.04
73240;BME280;61452;40.054;4.110;2022-12-18T00:41:39;102451.06;;;17.81;54.05
73240;BME280;61452;40.054;4.110;2022-12-18T00:47:00;102452.78;;;17.82;53.95
73240;BME280;61452;40.054;4.110;2022-12-18T00:52:02;102465.13;;;17.83;53.88
73240;BME280;61452;40.054;4.110;2022-12-18T00:57:04;102466.91;;;17.83;54.12
73240;BME280;61452;40.054;4.110;2022-12-18T01:02:06;102474.06;;;17.81;53.97
73240;BME280;61452;40.054;4.110;2022-12-18T01:07:08;102481.44;;;17.75;53.98
73240;BME280;61452;40.054;4.110;2022-12-18T01:12:10;102490.88;;;17.81;54.10
73240;BME280;61452;40.054;4.110;2022-12-18T01:17:13;102491.31;;;17.72;53.97
73240;BME280;61452;40.054;4.110;2022-12-18T01:22:15;102507.78;;;17.78;54.09
73240;BME280;61452;40.054;4.110;2022-12-18T01:27:18;102519.28;;;17.79;54.08
73240;BME280;61452;40.054;4.110;2022-12-18T01:32:21;102521.94;;;17.79;54.01
73240;BME280;61452;40.054;4.110;2022-12-18T01:37:24;102525.63;;;17.76;54.08
73240;BME280;61452;40.054;4.110;2022-12-18T01:42:26;102530.75;;;17.79;53.88
73240;BME280;61452;40.054;4.110;2022-12-18T01:47:42;102537.91;;;17.77;54.14
73240;BME280;61452;40.054;4.110;2022-12-18T01:52:51;102546.84;;;17.76;53.96
73240;BME280;61452;40.054;4.110;2022-12-18T01:57:56;102544.09;;;17.78;53.71
73240;BME280;61452;40.054;4.110;2022-12-18T02:02:59;102546.59;;;17.81;53.86
73240;BME280;61452;40.054;4.110;2022-12-18T02:19:06;102551.19;;;17.77;53.96
73240;BME280;61452;40.054;4.110;2022-12-18T02:29:40;102569.72;;;17.79;53.88
73240;BME280;61452;40.054;4.110;2022-12-18T02:34:46;102568.78;;;17.80;53.95
73240;BME280;61452;40.054;4.110;2022-12-18T02:39:53;102574.25;;;17.77;53.79
73240;BME280;61452;40.054;4.110;2022-12-18T02:44:57;102572.53;;;17.76;53.83
73240;BME280;61452;40.054;4.110;2022-12-18T02:50:22;102569.88;;;17.76;53.80
73240;BME280;61452;40.054;4.110;2022-12-18T03:01:03;102569.72;;;17.79;53.64
73240;BME280;61452;40.054;4.110;2022-12-18T03:06:14;102569.94;;;17.74;53.79
73240;BME280;61452;40.054;4.110;2022-12-18T03:11:19;102571.75;;;17.74;53.85
73240;BME280;61452;40.054;4.110;2022-12-18T03:16:43;102568.22;;;17.73;53.85
73240;BME280;61452;40.054;4.110;2022-12-18T03:21:49;102580.50;;;17.76;53.77
73240;BME280;61452;40.054;4.110;2022-12-18T03:26:55;102576.97;;;17.75;53.87
73240;BME280;61452;40.054;4.110;2022-12-18T03:32:05;102580.63;;;17.73;54.04
73240;BME280;61452;40.054;4.110;2022-12-18T03:37:08;102573.69;;;17.70;54.01
73240;BME280;61452;40.054;4.110;2022-12-18T03:42:23;102576.34;;;17.70;54.01
73240;BME280;61452;40.054;4.110;2022-12-18T03:48:00;102580.00;;;17.68;54.04
73240;BME280;61452;40.054;4.110;2022-12-18T03:58:28;102593.22;;;17.69;53.71
73240;BME280;61452;40.054;4.110;2022-12-18T04:03:42;102602.09;;;17.68;53.86
73240;BME280;61452;40.054;4.110;2022-12-18T04:08:47;102604.75;;;17.68;53.94
73240;BME280;61452;40.054;4.110;2022-12-18T04:13:58;102611.84;;;17.68;54.01
73240;BME280;61452;40.054;4.110;2022-12-18T04:19:00;102611.84;;;17.68;53.71
73240;BME280;61452;40.054;4.110;2022-12-18T04:24:06;102616.28;;;17.67;53.76
73240;BME280;61452;40.054;4.110;2022-12-18T04:29:11;102621.59;;;17.67;53.68
73240;BME280;61452;40.054;4.110;2022-12-18T04:34:14;102634.88;;;17.67;53.40
73240;BME280;61452;40.054;4.110;2022-12-18T04:39:22;102637.53;;;17.67;53.27
73240;BME280;61452;40.054;4.110;2022-12-18T04:44:28;102646.41;;;17.66;53.43
73240;BME280;61452;40.054;4.110;2022-12-18T04:49:30;102650.88;;;17.66;53.47
73240;BME280;61452;40.054;4.110;2022-12-18T04:54:32;102657.97;;;17.65;53.38
73240;BME280;61452;40.054;4.110;2022-12-18T04:59:35;102657.13;;;17.65;53.57
73240;BME280;61452;40.054;4.110;2022-12-18T05:04:37;102662.44;;;17.65;53.43
73240;BME280;61452;40.054;4.110;2022-12-18T05:09:39;102657.13;;;17.65;53.68
73240;BME280;61452;40.054;4.110;2022-12-18T05:14:42;102658.94;;;17.64;53.50
73240;BME280;61452;40.054;4.110;2022-12-18T05:19:44;102664.22;;;17.64;53.47
73240;BME280;61452;40.054;4.110;2022-12-18T05:24:46;102665.09;;;17.65;53.57
73240;BME280;61452;40.054;4.110;2022-12-18T05:29:48;102664.13;;;17.66;53.41
73240;BME280;61452;40.054;4.110;2022-12-18T05:34:50;102667.66;;;17.66;53.42
73240;BME280;61452;40.054;4.110;2022-12-18T05:39:52;102678.25;;;17.66;53.45
73240;BME280;61452;40.054;4.110;2022-12-18T05:44:54;102684.50;;;17.65;53.48
73240;BME280;61452;40.054;4.110;2022-12-18T05:49:57;102686.31;;;17.65;53.57
73240;BME280;61452;40.054;4.110;2022-12-18T05:54:59;102692.56;;;17.64;53.54
73240;BME280;61452;40.054;4.110;2022-12-18T06:00:01;102695.28;;;17.62;53.54
73240;BME280;61452;40.054;4.110;2022-12-18T06:05:12;102684.06;;;17.56;53.53
73240;BME280;61452;40.054;4.110;2022-12-18T06:10:14;102705.91;;;17.62;53.64
73240;BME280;61452;40.054;4.110;2022-12-18T06:15:17;102714.78;;;17.61;53.18
73240;BME280;61452;40.054;4.110;2022-12-18T06:20:19;102720.94;;;17.62;53.46
73240;BME280;61452;40.054;4.110;2022-12-18T06:25:21;102713.25;;;17.56;53.31
73240;BME280;61452;40.054;4.110;2022-12-18T06:30:24;102732.44;;;17.62;53.31
73240;BME280;61452;40.054;4.110;2022-12-18T06:35:26;102732.38;;;17.64;53.26
73240;BME280;61452;40.054;4.110;2022-12-18T06:40:28;102733.28;;;17.63;53.40
73240;BME280;61452;40.054;4.110;2022-12-18T06:45:30;102744.00;;;17.60;53.50
73240;BME280;61452;40.054;4.110;2022-12-18T06:50:32;102751.09;;;17.59;53.44
73240;BME280;61452;40.054;4.110;2022-12-18T06:55:35;102735.56;;;17.52;53.58
73240;BME280;61452;40.054;4.110;2022-12-18T07:00:37;102750.28;;;17.59;53.51
73240;BME280;61452;40.054;4.110;2022-12-18T07:05:40;102742.66;;;17.51;53.51
73240;BME280;61452;40.054;4.110;2022-12-18T07:10:43;102768.91;;;17.57;53.49
73240;BME280;61452;40.054;4.110;2022-12-18T07:15:50;102774.22;;;17.57;53.59
73240;BME280;61452;40.054;4.110;2022-12-18T07:20:52;102784.84;;;17.57;53.38
73240;BME280;61452;40.054;4.110;2022-12-18T07:25:54;102788.25;;;17.59;53.51
73240;BME280;61452;40.054;4.110;2022-12-18T07:30:56;102793.56;;;17.59;53.30
73240;BME280;61452;40.054;4.110;2022-12-18T07:36:02;102797.09;;;17.60;53.33
73240;BME280;61452;40.054;4.110;2022-12-18T07:41:07;102792.72;;;17.59;53.51
73240;BME280;61452;40.054;4.110;2022-12-18T07:46:10;102806.06;;;17.57;53.53
73240;BME280;61452;40.054;4.110;2022-12-18T07:51:16;102813.09;;;17.58;53.15
73240;BME280;61452;40.054;4.110;2022-12-18T07:56:19;102813.91;;;17.60;53.16
73240;BME280;61452;40.054;4.110;2022-12-18T08:01:33;102833.38;;;17.59;53.18
73240;BME280;61452;40.054;4.110;2022-12-18T08:06:35;102839.53;;;17.60;53.32
73240;BME280;61452;40.054;4.110;2022-12-18T08:11:38;102842.34;;;17.57;53.59
73240;BME280;61452;40.054;4.110;2022-12-18T08:16:40;102853.88;;;17.56;53.57
73240;BME280;61452;40.054;4.110;2022-12-18T08:21:42;102854.75;;;17.56;53.40
73240;BME280;61452;40.054;4.110;2022-12-18T08:26:44;102861.78;;;17.57;53.36
73240;BME280;61452;40.054;4.110;2022-12-18T08:32:07;102865.31;;;17.58;53.52
73240;BME280;61452;40.054;4.110;2022-12-18T08:37:09;102868.94;;;17.55;53.84
73240;BME280;61452;40.054;4.110;2022-12-18T08:42:11;102886.72;;;17.53;53.73
73240;BME280;61452;40.054;4.110;2022-12-18T08:47:32;102884.06;;;17.53;53.72
73240;BME280;61452;40.054;4.110;2022-12-18T08:52:34;102890.31;;;17.52;53.62
73240;BME280;61452;40.054;4.110;2022-12-18T08:57:36;102900.94;;;17.52;53.56
73240;BME280;61452;40.054;4.110;2022-12-18T09:02:38;102898.28;;;17.52;53.72
73240;BME280;61452;40.054;4.110;2022-12-18T09:07:40;102911.56;;;17.52;53.64
73240;BME280;61452;40.054;4.110;2022-12-18T09:12:42;102908.81;;;17.54;53.34
73240;BME280;61452;40.054;4.110;2022-12-18T09:17:45;102911.41;;;17.55;53.47
73240;BME280;61452;40.054;4.110;2022-12-18T09:22:47;102925.59;;;17.54;53.56
73240;BME280;61452;40.054;4.110;2022-12-18T09:27:49;102928.34;;;17.53;53.75
73240;BME280;61452;40.054;4.110;2022-12-18T09:32:51;102923.94;;;17.52;53.29
73240;BME280;61452;40.054;4.110;2022-12-18T09:37:53;102926.50;;;17.53;53.11
73240;BME280;61452;40.054;4.110;2022-12-18T09:43:03;102917.63;;;17.54;53.19
73240;BME280;61452;40.054;4.110;2022-12-18T09:48:19;102922.00;;;17.55;53.41
73240;BME280;61452;40.054;4.110;2022-12-18T09:53:26;102921.22;;;17.53;53.54
73240;BME280;61452;40.054;4.110;2022-12-18T10:04:07;102935.50;;;17.51;53.75
73240;BME280;61452;40.054;4.110;2022-12-18T10:10:13;102929.38;;;17.49;53.61
73240;BME280;61452;40.054;4.110;2022-12-18T10:20:05;102909.94;;;17.48;53.60
73240;BME280;61452;40.054;4.110;2022-12-18T10:30:25;102908.91;;;17.52;53.39
73240;BME280;61452;40.054;4.110;2022-12-18T10:35:27;102911.47;;;17.54;53.42
73240;BME280;61452;40.054;4.110;2022-12-18T10:40:30;102904.50;;;17.51;53.57
73240;BME280;61452;40.054;4.110;2022-12-18T10:45:32;102905.44;;;17.50;53.33
73240;BME280;61452;40.054;4.110;2022-12-18T10:50:36;102908.09;;;17.50;53.06
73240;BME280;61452;40.054;4.110;2022-12-18T10:56:00;102908.91;;;17.52;53.23
73240;BME280;61452;40.054;4.110;2022-12-18T11:01:17;102917.78;;;17.51;53.21
73240;BME280;61452;40.054;4.110;2022-12-18T11:06:23;102922.94;;;17.54;53.44
73240;BME280;61452;40.054;4.110;2022-12-18T11:11:26;102915.19;;;17.50;53.49
73240;BME280;61452;40.054;4.110;2022-12-18T11:16:32;102916.06;;;17.50;53.54
73240;BME280;61452;40.054;4.110;2022-12-18T11:21:42;102914.31;;;17.49;53.40
73240;BME280;61452;40.054;4.110;2022-12-18T11:26:44;102917.78;;;17.51;53.16
73240;BME280;61452;40.054;4.110;2022-12-18T11:31:46;102907.22;;;17.50;53.26
73240;BME280;61452;40.054;4.110;2022-12-18T11:36:49;102897.47;;;17.50;53.16
73240;BME280;61452;40.054;4.110;2022-12-18T11:42:00;102901.91;;;17.50;53.21
73240;BME280;61452;40.054;4.110;2022-12-18T11:52:26;102899.22;;;17.51;53.26
73240;BME280;61452;40.054;4.110;2022-12-18T12:24:21;102889.38;;;17.53;52.84
73240;BME280;61452;40.054;4.110;2022-12-18T12:34:44;102884.06;;;17.53;53.19
73240;BME280;61452;40.054;4.110;2022-12-18T12:39:59;102876.19;;;17.52;53.35
73240;BME280;61452;40.054;4.110;2022-12-18T12:45:30;102878.84;;;17.52;53.27
73240;BME280;61452;40.054;4.110;2022-12-18T12:50:35;102873.53;;;17.52;53.37
73240;BME280;61452;40.054;4.110;2022-12-18T12:55:39;102869.09;;;17.52;53.36
73240;BME280;61452;40.054;4.110;2022-12-18T13:06:16;102855.03;;;17.50;53.29
73240;BME280;61452;40.054;4.110;2022-12-18T13:11:29;102860.28;;;17.52;53.03
73240;BME280;61452;40.054;4.110;2022-12-18T13:17:38;102867.38;;;17.51;53.17
73240;BME280;61452;40.054;4.110;2022-12-18T13:22:45;102864.56;;;17.54;52.96
73240;BME280;61452;40.054;4.110;2022-12-18T13:28:20;102869.88;;;17.54;53.14
73240;BME280;61452;40.054;4.110;2022-12-18T13:33:40;102868.06;;;17.55;53.23
73240;BME280;61452;40.054;4.110;2022-12-18T13:44:39;102874.41;;;17.52;53.33
73240;BME280;61452;40.054;4.110;2022-12-18T13:49:43;102880.47;;;17.54;53.31
73240;BME280;61452;40.054;4.110;2022-12-18T13:54:52;102873.38;;;17.55;53.21
73240;BME280;61452;40.054;4.110;2022-12-18T13:59:57;102880.47;;;17.54;53.38
73240;BME280;61452;40.054;4.110;2022-12-18T14:04:59;102885.78;;;17.54;53.54
73240;BME280;61452;40.054;4.110;2022-12-18T14:10:03;102897.22;;;17.56;53.40
73240;BME280;61452;40.054;4.110;2022-12-18T14:20:29;102901.59;;;17.57;53.00
73240;BME280;61452;40.054;4.110;2022-12-18T14:25:32;102901.53;;;17.59;53.20
73240;BME280;61452;40.054;4.110;2022-12-18T14:30:37;102912.97;;;17.59;52.93
73240;BME280;61452;40.054;4.110;2022-12-18T14:35:53;102917.50;;;17.57;53.10
73240;BME280;61452;40.054;4.110;2022-12-18T14:41:14;102920.16;;;17.57;53.21
73240;BME280;61452;40.054;4.110;2022-12-18T14:46:34;102915.78;;;17.56;53.04
73240;BME280;61452;40.054;4.110;2022-12-18T14:51:37;102912.16;;;17.59;53.07
73240;BME280;61452;40.054;4.110;2022-12-18T14:56:44;102912.97;;;17.59;52.98
73240;BME280;61452;40.054;4.110;2022-12-18T15:07:18;102914.84;;;17.57;53.49
73240;BME280;61452;40.054;4.110;2022-12-18T15:12:48;102917.56;;;17.56;53.36
73240;BME280;61452;40.054;4.110;2022-12-18T15:17:57;102922.81;;;17.57;53.35
73240;BME280;61452;40.054;4.110;2022-12-18T15:22:59;102929.84;;;17.58;53.29
73240;BME280;61452;40.054;4.110;2022-12-18T15:28:01;102930.78;;;17.57;53.33
73240;BME280;61452;40.054;4.110;2022-12-18T15:33:23;102932.50;;;17.58;53.31
73240;BME280;61452;40.054;4.110;2022-12-18T15:38:26;102931.66;;;17.58;53.21
73240;BME280;61452;40.054;4.110;2022-12-18T15:43:29;102931.56;;;17.59;53.28
73240;BME280;61452;40.054;4.110;2022-12-18T15:48:43;102929.78;;;17.60;53.00
73240;BME280;61452;40.054;4.110;2022-12-18T15:53:47;102938.56;;;17.62;53.13
73240;BME280;61452;40.054;4.110;2022-12-18T15:58:50;102934.13;;;17.62;53.17
73240;BME280;61452;40.054;4.110;2022-12-18T16:03:52;102950.97;;;17.61;53.18
73240;BME280;61452;40.054;4.110;2022-12-18T16:08:55;102943.88;;;17.62;52.94
73240;BME280;61452;40.054;4.110;2022-12-18T16:13:57;102939.50;;;17.61;53.02
73240;BME280;61452;40.054;4.110;2022-12-18T16:18:59;102944.81;;;17.61;53.04
73240;BME280;61452;40.054;4.110;2022-12-18T16:24:03;102950.97;;;17.61;52.99
73240;BME280;61452;40.054;4.110;2022-12-18T16:29:05;102945.78;;;17.58;52.84
73240;BME280;61452;40.054;4.110;2022-12-18T16:34:21;102953.56;;;17.63;53.00
73240;BME280;61452;40.054;4.110;2022-12-18T16:39:30;102956.28;;;17.61;53.13
73240;BME280;61452;40.054;4.110;2022-12-18T16:44:33;102957.19;;;17.60;53.28
73240;BME280;61452;40.054;4.110;2022-12-18T16:49:36;102963.31;;;17.62;53.06
73240;BME280;61452;40.054;4.110;2022-12-18T16:54:39;102962.44;;;17.62;53.14
73240;BME280;61452;40.054;4.110;2022-12-18T16:59:42;102953.66;;;17.60;53.24
73240;BME280;61452;40.054;4.110;2022-12-18T17:04:45;102958.97;;;17.60;53.18
73240;BME280;61452;40.054;4.110;2022-12-18T17:09:47;102956.22;;;17.63;53.10
73240;BME280;61452;40.054;4.110;2022-12-18T17:14:51;102960.66;;;17.62;52.94
73240;BME280;61452;40.054;4.110;2022-12-18T17:19:53;102973.88;;;17.64;53.07
73240;BME280;61452;40.054;4.110;2022-12-18T17:24:55;102973.94;;;17.62;53.00
73240;BME280;61452;40.054;4.110;2022-12-18T17:29:57;102974.84;;;17.61;52.92
73240;BME280;61452;40.054;4.110;2022-12-18T17:34:59;102981.94;;;17.61;52.97
73240;BME280;61452;40.054;4.110;2022-12-18T17:40:09;102991.69;;;17.60;52.99
73240;BME280;61452;40.054;4.110;2022-12-18T17:45:11;102995.16;;;17.62;53.00
73240;BME280;61452;40.054;4.110;2022-12-18T17:50:13;102995.22;;;17.61;53.17
73240;BME280;61452;40.054;4.110;2022-12-18T17:55:15;103002.25;;;17.62;53.19
73240;BME280;61452;40.054;4.110;2022-12-18T18:00:18;103006.69;;;17.61;53.08
73240;BME280;61452;40.054;4.110;2022-12-18T18:05:21;103001.41;;;17.61;52.99
73240;BME280;61452;40.054;4.110;2022-12-18T18:10:23;103001.41;;;17.60;53.19
73240;BME280;61452;40.054;4.110;2022-12-18T18:15:25;103008.50;;;17.61;52.96
73240;BME280;61452;40.054;4.110;2022-12-18T18:20:27;103022.56;;;17.63;52.93
73240;BME280;61452;40.054;4.110;2022-12-18T18:25:34;103025.31;;;17.60;53.14
73240;BME280;61452;40.054;4.110;2022-12-18T18:30:38;103030.53;;;17.63;52.93
73240;BME280;61452;40.054;4.110;2022-12-18T18:35:43;103046.47;;;17.63;52.89
73240;BME280;61452;40.054;4.110;2022-12-18T18:41:02;103031.41;;;17.63;52.99
73240;BME280;61452;40.054;4.110;2022-12-18T18:46:05;103041.16;;;17.63;53.14
73240;BME280;61452;40.054;4.110;2022-12-18T18:51:10;103045.66;;;17.61;53.25
73240;BME280;61452;40.054;4.110;2022-12-18T18:56:20;103055.41;;;17.60;53.17
73240;BME280;61452;40.054;4.110;2022-12-18T19:01:42;103049.09;;;17.63;53.04
73240;BME280;61452;40.054;4.110;2022-12-18T19:06:45;103050.84;;;17.64;53.04
73240;BME280;61452;40.054;4.110;2022-12-18T19:11:49;103048.19;;;17.64;53.25
73240;BME280;61452;40.054;4.110;2022-12-18T19:17:09;103044.78;;;17.60;53.30
73240;BME280;61452;40.054;4.110;2022-12-18T19:22:12;103050.91;;;17.62;53.21
73240;BME280;61452;40.054;4.110;2022-12-18T19:27:14;103055.28;;;17.63;53.18
73240;BME280;61452;40.054;4.110;2022-12-18T19:32:17;103053.50;;;17.64;53.03
73240;BME280;61452;40.054;4.110;2022-12-18T19:37:19;103063.25;;;17.63;53.35
73240;BME280;61452;40.054;4.110;2022-12-18T19:42:21;103070.41;;;17.61;53.25
73240;BME280;61452;40.054;4.110;2022-12-18T19:47:34;103068.59;;;17.62;53.29
73240;BME280;61452;40.054;4.110;2022-12-18T19:52:36;103073.91;;;17.62;53.44
73240;BME280;61452;40.054;4.110;2022-12-18T19:57:38;103065.09;;;17.61;53.04
73240;BME280;61452;40.054;4.110;2022-12-18T20:02:41;103073.06;;;17.60;53.26
73240;BME280;61452;40.054;4.110;2022-12-18T20:07:43;103075.72;;;17.61;53.26
73240;BME280;61452;40.054;4.110;2022-12-18T20:12:45;103083.66;;;17.61;53.35
73240;BME280;61452;40.054;4.110;2022-12-18T20:17:47;103078.34;;;17.61;53.39
73240;BME280;61452;40.054;4.110;2022-12-18T20:22:50;103074.84;;;17.61;53.15
73240;BME280;61452;40.054;4.110;2022-12-18T20:27:52;103067.75;;;17.60;53.02
73240;BME280;61452;40.054;4.110;2022-12-18T20:32:54;103075.72;;;17.60;53.10
73240;BME280;61452;40.054;4.110;2022-12-18T20:37:56;103074.94;;;17.58;53.02
73240;BME280;61452;40.054;4.110;2022-12-18T20:43:00;103084.59;;;17.60;52.80
73240;BME280;61452;40.054;4.110;2022-12-18T20:48:02;103087.25;;;17.60;52.88
73240;BME280;61452;40.054;4.110;2022-12-18T20:53:05;103088.13;;;17.59;52.89
73240;BME280;61452;40.054;4.110;2022-12-18T20:58:07;103090.78;;;17.59;52.98
73240;BME280;61452;40.054;4.110;2022-12-18T21:03:11;103088.09;;;17.61;52.84
73240;BME280;61452;40.054;4.110;2022-12-18T21:08:14;103082.75;;;17.62;52.84
73240;BME280;61452;40.054;4.110;2022-12-18T21:13:16;103088.91;;;17.63;52.94
73240;BME280;61452;40.054;4.110;2022-12-18T21:18:19;103089.84;;;17.62;53.15
73240;BME280;61452;40.054;4.110;2022-12-18T21:23:22;103089.00;;;17.60;53.22
73240;BME280;61452;40.054;4.110;2022-12-18T21:28:24;103083.69;;;17.60;53.14
73240;BME280;61452;40.054;4.110;2022-12-18T21:33:26;103094.31;;;17.60;53.19
73240;BME280;61452;40.054;4.110;2022-12-18T21:38:29;103084.66;;;17.59;53.15
73240;BME280;61452;40.054;4.110;2022-12-18T21:43:31;103092.59;;;17.59;53.14
73240;BME280;61452;40.054;4.110;2022-12-18T21:48:52;103086.44;;;17.58;53.19
73240;BME280;61452;40.054;4.110;2022-12-18T21:53:54;103091.75;;;17.58;53.19
73240;BME280;61452;40.054;4.110;2022-12-18T21:58:56;103090.88;;;17.58;53.13
73240;BME280;61452;40.054;4.110;2022-12-18T22:03:58;103092.66;;;17.57;53.13
73240;BME280;61452;40.054;4.110;2022-12-18T22:09:01;103097.09;;;17.57;53.23
73240;BME280;61452;40.054;4.110;2022-12-18T22:14:04;103105.00;;;17.58;53.22
73240;BME280;61452;40.054;4.110;2022-12-18T22:19:07;103080.56;;;17.50;53.24
73240;BME280;61452;40.054;4.110;2022-12-18T22:24:23;103100.63;;;17.57;53.26
73240;BME280;61452;40.054;4.110;2022-12-18T22:29:26;103088.28;;;17.56;53.14
73240;BME280;61452;40.054;4.110;2022-12-18T22:34:46;103086.50;;;17.57;53.11
73240;BME280;61452;40.054;4.110;2022-12-18T22:39:49;103090.00;;;17.57;53.15
73240;BME280;61452;40.054;4.110;2022-12-18T22:44:51;103098.88;;;17.56;52.86
73240;BME280;61452;40.054;4.110;2022-12-18T22:49:53;103097.09;;;17.57;52.82
73240;BME280;61452;40.054;4.110;2022-12-18T22:54:55;103089.19;;;17.55;52.95
73240;BME280;61452;40.054;4.110;2022-12-18T22:59:57;103090.94;;;17.56;53.03
73240;BME280;61452;40.054;4.110;2022-12-18T23:04:59;103088.28;;;17.56;52.98
73240;BME280;61452;40.054;4.110;2022-12-18T23:10:01;103083.84;;;17.57;53.09
73240;BME280;61452;40.054;4.110;2022-12-18T23:15:04;103081.19;;;17.57;52.97
73240;BME280;61452;40.054;4.110;2022-12-18T23:20:06;103074.94;;;17.58;53.08
73240;BME280;61452;40.054;4.110;2022-12-18T23:25:08;103076.75;;;17.57;53.13
73240;BME280;61452;40.054;4.110;2022-12-18T23:30:11;103075.06;;;17.55;53.33
73240;BME280;61452;40.054;4.110;2022-12-18T23:35:13;103073.28;;;17.55;53.09
73240;BME280;61452;40.054;4.110;2022-12-18T23:40:16;103073.22;;;17.57;53.14
73240;BME280;61452;40.054;4.110;2022-12-18T23:45:19;103064.34;;;17.58;53.16
73240;BME280;61452;40.054;4.110;2022-12-18T23:50:21;103067.00;;;17.58;53.34
73240;BME280;61452;40.054;4.110;2022-12-18T23:55:30;103067.03;;;17.56;53.46
